createdAt,value
2023-06-30T00:01:55.278Z,26.66
2023-06-30T00:04:30.327Z,26.65
2023-06-30T00:07:01.421Z,26.63
2023-06-30T00:09:32.846Z,26.61
2023-06-30T00:12:04.142Z,26.60
2023-06-30T00:14:35.523Z,26.59
2023-06-30T00:17:07.137Z,26.57
2023-06-30T00:19:38.356Z,26.57
2023-06-30T00:22:10.132Z,26.56
2023-06-30T00:24:41.415Z,26.56
2023-06-30T00:27:12.933Z,26.56
2023-06-30T00:29:44.045Z,26.55
2023-06-30T00:32:15.687Z,26.55
2023-06-30T00:34:47.403Z,26.55
2023-06-30T00:37:19.940Z,26.54
2023-06-30T00:39:51.759Z,26.55
2023-06-30T00:42:23.406Z,26.55
2023-06-30T00:44:54.805Z,26.54
2023-06-30T00:47:26.269Z,26.52
2023-06-30T00:49:57.711Z,26.49
2023-06-30T00:52:29.043Z,26.46
2023-06-30T00:55:00.204Z,26.46
2023-06-30T00:57:31.568Z,26.45
2023-06-30T01:00:07.267Z,26.45
2023-06-30T01:02:46.250Z,26.44
2023-06-30T01:05:26.883Z,26.44
2023-06-30T01:08:06.883Z,26.43
2023-06-30T01:10:38.742Z,26.41
2023-06-30T01:13:11.852Z,26.39
2023-06-30T01:15:46.054Z,26.39
2023-06-30T01:18:21.225Z,26.39
2023-06-30T01:20:53.818Z,26.39
2023-06-30T01:23:34.336Z,26.37
2023-06-30T01:26:07.123Z,26.34
2023-06-30T01:28:40.893Z,26.31
2023-06-30T01:31:12.745Z,26.28
2023-06-30T01:33:45.644Z,26.24
2023-06-30T01:36:17.288Z,26.22
2023-06-30T01:38:48.649Z,26.20
2023-06-30T01:41:21.144Z,26.18
2023-06-30T01:43:53.901Z,26.17
2023-06-30T01:46:25.580Z,26.16
2023-06-30T01:48:57.747Z,26.14
2023-06-30T01:51:29.083Z,26.12
2023-06-30T01:54:00.362Z,26.11
2023-06-30T01:56:32.153Z,26.10
2023-06-30T01:59:03.421Z,26.09
2023-06-30T02:01:34.740Z,26.09
2023-06-30T02:04:06.682Z,26.10
2023-06-30T02:06:38.130Z,26.09
2023-06-30T02:09:09.850Z,26.06
2023-06-30T02:11:42.400Z,26.04
2023-06-30T02:14:19.216Z,26.02
2023-06-30T02:16:50.701Z,26.01
2023-06-30T02:19:25.047Z,26.00
2023-06-30T02:21:56.215Z,26.00
2023-06-30T02:24:27.447Z,25.99
2023-06-30T02:26:59.291Z,25.99
2023-06-30T02:29:32.292Z,25.98
2023-06-30T02:32:03.441Z,25.97
2023-06-30T02:34:34.412Z,25.96
2023-06-30T02:37:06.247Z,25.95
2023-06-30T02:39:38.381Z,25.95
2023-06-30T02:42:10.369Z,25.94
2023-06-30T02:44:41.325Z,25.93
2023-06-30T02:47:12.755Z,25.92
2023-06-30T02:49:44.140Z,25.91
2023-06-30T02:52:15.746Z,25.90
2023-06-30T02:54:47.408Z,25.88
2023-06-30T02:57:18.851Z,25.86
2023-06-30T02:59:50.045Z,25.85
2023-06-30T03:02:21.995Z,25.84
2023-06-30T03:04:57.285Z,25.84
2023-06-30T03:07:29.878Z,25.83
2023-06-30T03:10:02.204Z,25.83
2023-06-30T03:12:33.485Z,25.82
2023-06-30T03:15:05.548Z,25.82
2023-06-30T03:17:38.463Z,25.81
2023-06-30T03:20:13.675Z,25.80
2023-06-30T03:22:45.856Z,25.80
2023-06-30T03:25:17.251Z,25.80
2023-06-30T03:27:48.482Z,25.80
2023-06-30T03:30:19.798Z,25.80
2023-06-30T03:32:51.402Z,25.81
2023-06-30T03:35:22.425Z,25.81
2023-06-30T03:37:53.427Z,25.81
2023-06-30T03:40:24.608Z,25.80
2023-06-30T03:42:56.064Z,25.81
2023-06-30T03:45:28.544Z,25.82
2023-06-30T03:48:00.013Z,25.83
2023-06-30T03:50:31.285Z,25.83
2023-06-30T03:53:02.906Z,25.83
2023-06-30T03:55:34.193Z,25.83
2023-06-30T03:58:05.776Z,25.84
2023-06-30T04:00:37.283Z,25.85
2023-06-30T04:03:08.434Z,25.86
2023-06-30T04:05:40.055Z,25.86
2023-06-30T04:08:11.401Z,25.87
2023-06-30T04:10:42.762Z,25.87
2023-06-30T04:13:14.225Z,25.87
2023-06-30T04:15:45.652Z,25.88
2023-06-30T04:18:17.511Z,25.89
2023-06-30T04:20:48.959Z,25.90
2023-06-30T04:23:20.413Z,25.93
2023-06-30T04:25:51.550Z,26.02
2023-06-30T04:28:23.062Z,26.12
2023-06-30T04:30:54.346Z,26.26
2023-06-30T04:33:25.627Z,26.41
2023-06-30T04:35:56.983Z,26.56
2023-06-30T04:38:28.770Z,26.73
2023-06-30T04:41:00.616Z,26.91
2023-06-30T04:43:32.035Z,27.06
2023-06-30T04:46:03.107Z,27.16
2023-06-30T04:48:34.640Z,27.23
2023-06-30T04:51:05.705Z,27.30
2023-06-30T04:53:40.161Z,27.38
2023-06-30T04:56:11.942Z,27.44
2023-06-30T04:58:43.121Z,27.48
2023-06-30T05:01:14.370Z,27.52
2023-06-30T05:03:45.698Z,27.55
2023-06-30T05:06:17.190Z,27.56
2023-06-30T05:08:48.721Z,27.57
2023-06-30T05:11:19.928Z,27.59
2023-06-30T05:13:51.632Z,27.58
2023-06-30T05:16:22.971Z,27.58
2023-06-30T05:18:54.480Z,27.57
2023-06-30T05:21:25.978Z,27.59
2023-06-30T05:23:57.999Z,27.62
2023-06-30T05:26:29.383Z,27.64
2023-06-30T05:29:05.135Z,27.67
2023-06-30T05:31:36.946Z,27.70
2023-06-30T05:34:08.242Z,27.71
2023-06-30T05:36:39.746Z,27.72
2023-06-30T05:39:11.874Z,27.72
2023-06-30T05:41:43.382Z,27.71
2023-06-30T05:44:14.697Z,27.70
2023-06-30T05:46:45.906Z,27.71
2023-06-30T05:49:17.267Z,27.71
2023-06-30T05:51:48.938Z,27.69
2023-06-30T05:54:19.897Z,27.66
2023-06-30T05:56:51.586Z,27.61
2023-06-30T05:59:23.339Z,27.56
2023-06-30T06:01:54.576Z,27.53
2023-06-30T06:04:26.428Z,27.54
2023-06-30T06:06:58.630Z,27.53
2023-06-30T06:09:29.662Z,27.52
2023-06-30T06:12:01.148Z,27.50
2023-06-30T06:14:32.320Z,27.51
2023-06-30T06:17:03.601Z,27.55
2023-06-30T06:19:35.025Z,27.59
2023-06-30T06:22:06.987Z,27.63
2023-06-30T06:24:38.198Z,27.65
2023-06-30T06:27:10.409Z,27.64
2023-06-30T06:29:41.747Z,27.60
2023-06-30T06:32:13.447Z,27.58
2023-06-30T06:34:44.756Z,27.57
2023-06-30T06:37:17.727Z,27.55
2023-06-30T06:39:49.020Z,27.51
2023-06-30T06:42:20.096Z,27.47
2023-06-30T06:44:53.180Z,27.44
2023-06-30T06:47:51.089Z,27.43
2023-06-30T06:50:22.368Z,27.44
2023-06-30T06:52:53.422Z,27.47
2023-06-30T06:55:24.642Z,27.51
2023-06-30T06:57:56.996Z,27.56
2023-06-30T07:00:28.243Z,27.59
2023-06-30T07:02:59.953Z,27.54
2023-06-30T07:05:32.277Z,27.45
2023-06-30T07:08:06.124Z,27.34
2023-06-30T07:10:38.206Z,27.05
2023-06-30T07:13:10.163Z,26.27
2023-06-30T07:15:41.679Z,25.53
2023-06-30T07:18:13.009Z,25.05
2023-06-30T07:20:44.469Z,24.68
2023-06-30T07:23:16.091Z,24.31
2023-06-30T07:25:48.592Z,24.10
2023-06-30T07:28:20.115Z,23.85
2023-06-30T07:30:51.502Z,23.52
2023-06-30T07:33:22.605Z,23.24
2023-06-30T07:35:53.866Z,23.15
2023-06-30T07:38:25.644Z,23.13
2023-06-30T07:40:57.667Z,23.22
2023-06-30T07:43:31.704Z,23.31
2023-06-30T07:46:02.986Z,23.27
2023-06-30T07:48:34.423Z,23.24
2023-06-30T07:51:09.578Z,23.19
2023-06-30T07:53:41.252Z,23.17
2023-06-30T07:56:12.916Z,23.29
2023-06-30T07:58:44.177Z,23.43
2023-06-30T08:01:15.163Z,23.58
2023-06-30T08:03:46.367Z,23.71
2023-06-30T08:06:18.277Z,23.82
2023-06-30T08:08:49.565Z,23.94
2023-06-30T08:11:20.646Z,24.05
2023-06-30T08:13:52.187Z,24.16
2023-06-30T08:16:23.103Z,24.27
2023-06-30T08:18:54.854Z,24.36
2023-06-30T08:21:26.249Z,24.44
2023-06-30T08:23:57.502Z,24.53
2023-06-30T08:26:28.951Z,24.65
2023-06-30T08:29:00.142Z,24.74
2023-06-30T08:31:32.458Z,24.79
2023-06-30T08:34:03.973Z,24.87
2023-06-30T08:36:35.354Z,24.96
2023-06-30T08:39:06.513Z,25.07
2023-06-30T08:41:40.115Z,25.13
2023-06-30T08:44:12.504Z,25.21
2023-06-30T08:46:44.443Z,25.28
2023-06-30T08:49:15.923Z,25.35
2023-06-30T08:51:47.648Z,25.42
2023-06-30T08:54:19.246Z,25.50
2023-06-30T08:56:51.175Z,25.59
2023-06-30T08:59:22.752Z,25.68
2023-06-30T09:01:56.091Z,25.77
2023-06-30T09:04:27.798Z,25.85
2023-06-30T09:07:01.674Z,25.89
2023-06-30T09:09:39.758Z,25.96
2023-06-30T09:12:12.745Z,25.97
2023-06-30T09:14:46.906Z,25.98
2023-06-30T09:17:18.927Z,25.98
2023-06-30T09:19:50.814Z,26.01
2023-06-30T09:22:53.254Z,26.00
2023-06-30T09:25:41.895Z,25.81
2023-06-30T09:28:15.595Z,25.42
2023-06-30T09:30:50.945Z,25.00
2023-06-30T09:33:22.474Z,24.70
2023-06-30T09:35:54.255Z,24.49
2023-06-30T09:38:29.638Z,24.39
2023-06-30T09:41:01.152Z,24.27
2023-06-30T09:43:31.974Z,24.08
2023-06-30T09:46:04.500Z,23.95
2023-06-30T09:48:39.701Z,24.00
2023-06-30T09:51:12.128Z,24.16
2023-06-30T09:53:46.111Z,24.37
2023-06-30T09:56:23.024Z,24.64
2023-06-30T09:58:59.173Z,24.85
2023-06-30T10:01:31.199Z,24.79
2023-06-30T10:04:02.641Z,24.77
2023-06-30T10:06:34.603Z,24.85
2023-06-30T10:09:06.692Z,24.98
2023-06-30T10:11:39.645Z,25.12
2023-06-30T10:14:13.183Z,25.17
2023-06-30T10:16:44.645Z,25.17
2023-06-30T10:19:15.901Z,25.15
2023-06-30T10:21:48.361Z,25.23
2023-06-30T10:24:22.790Z,25.39
2023-06-30T10:26:55.249Z,25.54
2023-06-30T10:29:27.023Z,25.69
2023-06-30T10:31:58.650Z,25.87
2023-06-30T10:34:31.190Z,26.01
2023-06-30T10:37:03.248Z,26.10
2023-06-30T10:39:35.245Z,26.17
2023-06-30T10:42:09.104Z,26.23
2023-06-30T10:44:48.184Z,26.27
2023-06-30T10:47:24.664Z,26.36
2023-06-30T10:49:56.843Z,26.45
2023-06-30T10:52:32.123Z,26.51
2023-06-30T10:55:09.792Z,26.61
2023-06-30T10:57:41.472Z,26.67
2023-06-30T11:00:15.839Z,26.74
2023-06-30T11:02:52.059Z,26.83
2023-06-30T11:05:25.424Z,26.91
2023-06-30T11:08:05.888Z,26.97
2023-06-30T11:10:46.187Z,27.01
2023-06-30T11:13:17.351Z,27.03
2023-06-30T11:15:54.088Z,27.05
2023-06-30T11:18:26.582Z,27.10
2023-06-30T11:21:02.672Z,27.15
2023-06-30T11:23:37.617Z,27.18
2023-06-30T11:26:17.469Z,27.20
2023-06-30T11:28:50.475Z,27.21
2023-06-30T11:31:22.285Z,27.27
2023-06-30T11:33:53.486Z,27.33
2023-06-30T11:36:24.790Z,27.43
2023-06-30T11:38:55.735Z,27.51
2023-06-30T11:41:27.104Z,27.61
2023-06-30T11:43:58.191Z,27.67
2023-06-30T11:46:37.102Z,27.73
2023-06-30T11:49:08.871Z,27.86
2023-06-30T11:51:40.144Z,27.99
2023-06-30T11:54:11.519Z,28.08
2023-06-30T11:56:43.782Z,28.17
2023-06-30T11:59:14.949Z,28.27
2023-06-30T12:01:46.559Z,28.30
2023-06-30T12:04:37.747Z,28.26
2023-06-30T12:07:09.600Z,28.29
2023-06-30T12:09:43.064Z,28.35
2023-06-30T12:12:27.636Z,28.45
2023-06-30T12:14:59.233Z,28.52
2023-06-30T12:17:31.796Z,28.50
2023-06-30T12:20:03.087Z,28.43
2023-06-30T12:22:36.714Z,28.35
2023-06-30T12:25:09.403Z,28.26
2023-06-30T12:27:44.872Z,28.14
2023-06-30T12:30:20.502Z,27.97
2023-06-30T12:32:59.594Z,27.80
2023-06-30T12:35:39.174Z,27.58
2023-06-30T12:38:13.922Z,27.42
2023-06-30T12:40:45.797Z,27.27
2023-06-30T12:43:18.993Z,27.13
2023-06-30T12:45:50.301Z,26.98
2023-06-30T12:48:21.933Z,26.82
2023-06-30T12:50:54.338Z,26.72
2023-06-30T12:53:26.075Z,26.67
2023-06-30T12:55:57.468Z,26.58
2023-06-30T12:58:28.858Z,26.51
2023-06-30T13:01:02.254Z,26.43
2023-06-30T13:03:36.039Z,26.39
2023-06-30T13:06:07.626Z,26.34
2023-06-30T13:08:38.891Z,26.31
2023-06-30T13:11:09.987Z,26.28
2023-06-30T13:13:41.355Z,26.26
2023-06-30T13:16:13.120Z,26.28
2023-06-30T13:18:44.596Z,26.32
2023-06-30T13:21:16.000Z,26.37
2023-06-30T13:23:47.676Z,26.42
2023-06-30T13:26:19.081Z,26.48
2023-06-30T13:28:50.382Z,26.61
2023-06-30T13:31:21.974Z,26.73
2023-06-30T13:33:53.039Z,26.85
2023-06-30T13:36:26.013Z,26.98
2023-06-30T13:38:59.516Z,27.11
2023-06-30T13:41:30.769Z,27.21
2023-06-30T13:44:02.043Z,27.30
2023-06-30T13:46:33.507Z,27.37
2023-06-30T13:49:04.506Z,27.42
2023-06-30T13:51:35.589Z,27.48
2023-06-30T13:54:06.721Z,27.54
2023-06-30T13:56:38.098Z,27.62
2023-06-30T13:59:09.200Z,27.72
2023-06-30T14:01:42.214Z,27.85
2023-06-30T14:04:13.828Z,28.04
2023-06-30T14:06:45.926Z,28.23
2023-06-30T14:09:18.043Z,28.39
2023-06-30T14:11:49.478Z,28.44
2023-06-30T14:14:20.736Z,28.42
2023-06-30T14:16:51.796Z,28.38
2023-06-30T14:19:23.173Z,28.37
2023-06-30T14:21:54.561Z,28.35
2023-06-30T14:24:25.771Z,28.35
2023-06-30T14:26:57.312Z,28.33
2023-06-30T14:29:28.536Z,28.32
2023-06-30T14:31:59.926Z,28.37
2023-06-30T14:34:31.588Z,28.42
2023-06-30T14:37:03.666Z,28.44
2023-06-30T14:39:34.876Z,28.43
2023-06-30T14:42:09.194Z,28.39
2023-06-30T14:44:47.283Z,28.34
2023-06-30T14:47:18.995Z,28.33
2023-06-30T14:49:50.681Z,28.32
2023-06-30T14:52:21.892Z,28.32
2023-06-30T14:54:53.108Z,28.32
2023-06-30T14:57:24.449Z,28.31
2023-06-30T14:59:56.088Z,28.28
2023-06-30T15:02:27.478Z,28.14
2023-06-30T15:04:58.767Z,27.99
2023-06-30T15:07:30.456Z,27.85
2023-06-30T15:10:02.009Z,27.74
2023-06-30T15:12:33.901Z,27.65
2023-06-30T15:15:06.328Z,27.52
2023-06-30T15:17:37.719Z,27.41
2023-06-30T15:20:10.780Z,27.28
2023-06-30T15:22:42.220Z,27.19
2023-06-30T15:25:26.275Z,27.10
2023-06-30T15:27:58.003Z,26.98
2023-06-30T15:30:30.707Z,26.87
2023-06-30T15:33:04.960Z,26.77
2023-06-30T15:35:35.970Z,26.68
2023-06-30T15:38:07.751Z,26.65
2023-06-30T15:40:40.326Z,26.64
2023-06-30T15:43:11.648Z,26.66
2023-06-30T15:45:43.376Z,26.66
2023-06-30T15:48:17.412Z,26.74
2023-06-30T15:50:48.572Z,26.88
2023-06-30T15:53:19.674Z,26.97
2023-06-30T15:55:50.718Z,27.06
2023-06-30T15:58:23.171Z,27.14
2023-06-30T16:00:54.467Z,27.18
2023-06-30T16:03:25.677Z,27.18
2023-06-30T16:05:57.100Z,27.18
2023-06-30T16:08:28.075Z,27.16
2023-06-30T16:10:59.152Z,27.11
2023-06-30T16:13:30.470Z,27.00
2023-06-30T16:16:01.387Z,26.88
2023-06-30T16:18:32.964Z,26.77
2023-06-30T16:21:04.312Z,26.67
2023-06-30T16:23:35.412Z,26.56
2023-06-30T16:26:08.486Z,26.49
2023-06-30T16:28:39.915Z,26.41
2023-06-30T16:31:11.177Z,26.32
2023-06-30T16:33:42.822Z,26.24
2023-06-30T16:36:14.376Z,26.17
2023-06-30T16:38:46.030Z,26.06
2023-06-30T16:41:17.249Z,25.95
2023-06-30T16:43:48.620Z,25.88
2023-06-30T16:46:19.801Z,25.85
2023-06-30T16:48:51.010Z,25.83
2023-06-30T16:51:22.303Z,25.85
2023-06-30T16:53:53.441Z,25.88
2023-06-30T16:56:24.904Z,25.88
2023-06-30T16:58:56.480Z,25.91
2023-06-30T17:01:27.820Z,25.95
2023-06-30T17:03:59.182Z,25.98
2023-06-30T17:06:30.840Z,26.03
2023-06-30T17:09:02.171Z,26.06
2023-06-30T17:11:33.775Z,26.08
2023-06-30T17:14:05.072Z,26.07
2023-06-30T17:16:36.543Z,26.09
2023-06-30T17:19:07.781Z,26.12
2023-06-30T17:21:40.198Z,26.12
2023-06-30T17:24:13.482Z,26.10
2023-06-30T17:26:44.670Z,26.10
2023-06-30T17:29:16.130Z,26.14
2023-06-30T17:31:47.214Z,26.17
2023-06-30T17:34:19.648Z,26.20
2023-06-30T17:37:00.325Z,26.24
2023-06-30T17:39:32.001Z,26.25
2023-06-30T17:42:03.528Z,26.25
2023-06-30T17:44:34.663Z,26.26
2023-06-30T17:47:06.329Z,26.24
2023-06-30T17:49:38.504Z,26.22
2023-06-30T17:52:10.952Z,26.20
2023-06-30T17:57:29.320Z,26.19
2023-06-30T18:00:00.805Z,26.12
2023-06-30T18:02:34.443Z,26.08
2023-06-30T18:05:06.187Z,26.03
2023-06-30T18:07:38.051Z,25.98
2023-06-30T18:10:14.529Z,25.94
2023-06-30T18:12:46.385Z,25.94
2023-06-30T18:15:17.526Z,25.99
2023-06-30T18:17:49.420Z,26.02
2023-06-30T18:20:21.870Z,26.03
2023-06-30T18:22:53.152Z,26.11
2023-06-30T18:25:24.445Z,26.13
2023-06-30T18:27:55.630Z,26.08
2023-06-30T18:30:26.926Z,26.03
2023-06-30T18:32:58.490Z,25.99
2023-06-30T18:35:29.706Z,25.97
2023-06-30T18:38:01.032Z,25.94
2023-06-30T18:40:32.131Z,25.92
2023-06-30T18:43:03.253Z,25.90
2023-06-30T18:45:36.632Z,25.87
2023-06-30T18:48:08.446Z,25.85
2023-06-30T18:50:39.711Z,25.83
2023-06-30T18:53:11.687Z,25.82
2023-06-30T18:55:43.704Z,25.82
2023-06-30T18:58:15.109Z,25.87
2023-06-30T19:00:46.188Z,25.86
2023-06-30T19:03:18.318Z,25.87
2023-06-30T19:05:49.880Z,25.90
2023-06-30T19:08:21.226Z,25.94
2023-06-30T19:10:52.750Z,26.03
2023-06-30T19:13:24.638Z,26.09
2023-06-30T19:15:56.064Z,26.05
2023-06-30T19:18:27.252Z,25.99
2023-06-30T19:20:58.719Z,25.93
2023-06-30T19:23:29.983Z,25.92
2023-06-30T19:26:01.051Z,25.79
2023-06-30T19:28:32.285Z,25.61
2023-06-30T19:31:03.960Z,25.40
2023-06-30T19:33:37.434Z,25.16
2023-06-30T19:36:09.115Z,25.08
2023-06-30T19:38:41.243Z,25.05
2023-06-30T19:41:13.647Z,25.09
2023-06-30T19:43:45.290Z,25.09
2023-06-30T19:46:16.285Z,25.12
2023-06-30T19:48:47.843Z,25.12
2023-06-30T19:51:19.119Z,25.08
2023-06-30T19:53:50.489Z,25.03
2023-06-30T19:56:21.721Z,25.01
2023-06-30T19:58:52.849Z,25.08
2023-06-30T20:01:26.923Z,25.20
2023-06-30T20:03:58.780Z,25.30
2023-06-30T20:06:30.284Z,25.32
2023-06-30T20:09:01.653Z,25.35
2023-06-30T20:11:33.073Z,25.44
2023-06-30T20:14:04.239Z,25.55
2023-06-30T20:16:35.551Z,25.64
2023-06-30T20:19:06.924Z,25.73
2023-06-30T20:21:37.958Z,25.75
2023-06-30T20:24:09.605Z,25.68
2023-06-30T20:26:40.760Z,25.42
2023-06-30T20:29:12.864Z,25.27
2023-06-30T20:31:44.350Z,25.30
2023-06-30T20:34:16.271Z,25.33
2023-06-30T20:36:49.215Z,25.27
2023-06-30T20:39:20.311Z,25.21
2023-06-30T20:41:51.627Z,25.22
2023-06-30T20:44:23.100Z,25.16
2023-06-30T20:46:54.933Z,25.16
2023-06-30T20:49:26.255Z,25.27
2023-06-30T20:51:57.872Z,25.38
2023-06-30T20:54:29.369Z,25.49
2023-06-30T20:57:02.026Z,25.58
2023-06-30T20:59:34.224Z,25.70
2023-06-30T21:02:05.935Z,25.78
2023-06-30T21:04:37.420Z,25.76
2023-06-30T21:07:10.278Z,25.71
2023-06-30T21:09:41.776Z,25.73
2023-06-30T21:12:13.773Z,25.65
2023-06-30T21:14:44.979Z,25.50
2023-06-30T21:17:16.265Z,25.52
2023-06-30T21:19:48.255Z,25.64
2023-06-30T21:22:19.422Z,25.71
2023-06-30T21:24:50.779Z,25.61
2023-06-30T21:27:22.133Z,25.55
2023-06-30T21:29:53.239Z,25.55
2023-06-30T21:32:24.465Z,25.53
2023-06-30T21:34:55.733Z,25.35
2023-06-30T21:37:27.338Z,25.12
2023-06-30T21:40:02.531Z,24.96
2023-06-30T21:42:33.663Z,25.13
2023-06-30T21:45:05.165Z,25.31
2023-06-30T21:47:36.332Z,25.26
2023-06-30T21:50:09.027Z,25.17
2023-06-30T21:52:40.023Z,25.21
2023-06-30T21:55:12.467Z,25.33
2023-06-30T21:57:43.592Z,25.48
2023-06-30T22:00:16.324Z,25.55
2023-06-30T22:02:48.076Z,25.66
2023-06-30T22:05:19.662Z,25.60
2023-06-30T22:07:51.420Z,25.44
2023-06-30T22:10:22.833Z,25.28
2023-06-30T22:12:54.071Z,25.21
2023-06-30T22:15:25.614Z,25.10
2023-06-30T22:17:57.465Z,24.99
2023-06-30T22:20:28.786Z,24.85
2023-06-30T22:23:00.122Z,24.79
2023-06-30T22:25:31.439Z,24.71
2023-06-30T22:28:02.721Z,24.63
2023-06-30T22:30:34.724Z,24.56
2023-06-30T22:33:06.805Z,24.52
2023-06-30T22:35:38.780Z,24.47
2023-06-30T22:38:10.613Z,24.40
2023-06-30T22:40:41.856Z,24.29
2023-06-30T22:43:13.134Z,24.16
2023-06-30T22:45:45.075Z,24.04
2023-06-30T22:48:16.564Z,24.00
2023-06-30T22:50:48.361Z,23.97
2023-06-30T22:53:20.210Z,23.95
2023-06-30T22:55:51.628Z,23.92
2023-06-30T22:58:22.972Z,23.90
2023-06-30T23:00:54.647Z,23.88
2023-06-30T23:03:26.337Z,23.88
2023-06-30T23:05:57.501Z,23.89
2023-06-30T23:08:28.660Z,23.86
2023-06-30T23:11:00.004Z,23.84
2023-06-30T23:13:32.031Z,23.81
2023-06-30T23:16:03.424Z,23.79
2023-06-30T23:18:38.824Z,23.78
2023-06-30T23:21:12.129Z,23.78
2023-06-30T23:23:43.864Z,23.78
2023-06-30T23:26:16.873Z,23.78
2023-06-30T23:28:50.675Z,23.77
2023-06-30T23:31:22.967Z,23.77
2023-06-30T23:33:54.419Z,23.79
2023-06-30T23:36:26.095Z,23.79
2023-06-30T23:38:57.418Z,23.78
2023-06-30T23:41:30.516Z,23.78
2023-06-30T23:44:02.201Z,23.78
2023-06-30T23:46:33.445Z,23.78
2023-06-30T23:49:05.136Z,23.78
2023-06-30T23:51:36.374Z,23.78
2023-06-30T23:54:07.695Z,23.80
2023-06-30T23:56:38.847Z,23.82
2023-06-30T23:59:10.559Z,23.81
